sensor_id;sensor_type;location;lat;lon;timestamp;temperature;humidity
36990;DHT22;22898;52.102;5.776;2022-07-01T00:02:06;21.10;94.80
36990;DHT22;22898;52.102;5.776;2022-07-01T00:04:32;21.20;94.50
36990;DHT22;22898;52.102;5.776;2022-07-01T00:06:58;21.40;94.10
36990;DHT22;22898;52.102;5.776;2022-07-01T00:09:23;21.40;94.50
36990;DHT22;22898;52.102;5.776;2022-07-01T00:11:49;21.60;93.90
36990;DHT22;22898;52.102;5.776;2022-07-01T00:14:15;21.80;93.50
36990;DHT22;22898;52.102;5.776;2022-07-01T00:16:41;21.60;93.80
36990;DHT22;22898;52.102;5.776;2022-07-01T00:19:07;21.50;94.10
36990;DHT22;22898;52.102;5.776;2022-07-01T00:21:33;21.50;93.90
36990;DHT22;22898;52.102;5.776;2022-07-01T00:23:59;21.40;94.20
36990;DHT22;22898;52.102;5.776;2022-07-01T00:26:25;21.50;93.90
36990;DHT22;22898;52.102;5.776;2022-07-01T00:28:50;21.70;93.60
36990;DHT22;22898;52.102;5.776;2022-07-01T00:31:16;21.80;93.50
36990;DHT22;22898;52.102;5.776;2022-07-01T00:33:42;21.90;93.10
36990;DHT22;22898;52.102;5.776;2022-07-01T00:36:07;21.80;93.20
36990;DHT22;22898;52.102;5.776;2022-07-01T00:38:33;21.30;93.90
36990;DHT22;22898;52.102;5.776;2022-07-01T00:40:58;21.10;94.30
36990;DHT22;22898;52.102;5.776;2022-07-01T00:43:24;21.20;93.90
36990;DHT22;22898;52.102;5.776;2022-07-01T00:45:51;21.40;93.60
36990;DHT22;22898;52.102;5.776;2022-07-01T00:48:18;21.20;93.70
36990;DHT22;22898;52.102;5.776;2022-07-01T00:50:45;21.10;94.30
36990;DHT22;22898;52.102;5.776;2022-07-01T00:53:14;21.10;94.20
36990;DHT22;22898;52.102;5.776;2022-07-01T00:55:41;21.10;94.00
36990;DHT22;22898;52.102;5.776;2022-07-01T00:58:07;21.20;93.70
36990;DHT22;22898;52.102;5.776;2022-07-01T01:00:34;21.30;93.70
36990;DHT22;22898;52.102;5.776;2022-07-01T01:02:59;21.20;93.90
36990;DHT22;22898;52.102;5.776;2022-07-01T01:05:25;20.90;94.40
36990;DHT22;22898;52.102;5.776;2022-07-01T01:07:51;20.80;94.80
36990;DHT22;22898;52.102;5.776;2022-07-01T01:10:17;20.80;94.60
36990;DHT22;22898;52.102;5.776;2022-07-01T01:12:45;21.00;94.10
36990;DHT22;22898;52.102;5.776;2022-07-01T01:15:16;20.80;94.50
36990;DHT22;22898;52.102;5.776;2022-07-01T01:17:42;20.40;95.50
36990;DHT22;22898;52.102;5.776;2022-07-01T01:20:14;20.10;95.80
36990;DHT22;22898;52.102;5.776;2022-07-01T01:22:39;20.10;96.10
36990;DHT22;22898;52.102;5.776;2022-07-01T01:25:05;20.30;95.40
36990;DHT22;22898;52.102;5.776;2022-07-01T01:27:31;20.40;95.50
36990;DHT22;22898;52.102;5.776;2022-07-01T01:29:56;20.60;95.10
36990;DHT22;22898;52.102;5.776;2022-07-01T01:32:22;20.80;94.40
36990;DHT22;22898;52.102;5.776;2022-07-01T01:34:47;20.40;95.40
36990;DHT22;22898;52.102;5.776;2022-07-01T01:37:13;20.40;95.30
36990;DHT22;22898;52.102;5.776;2022-07-01T01:39:38;20.20;95.80
36990;DHT22;22898;52.102;5.776;2022-07-01T01:42:07;20.20;95.90
36990;DHT22;22898;52.102;5.776;2022-07-01T01:44:33;19.90;96.20
36990;DHT22;22898;52.102;5.776;2022-07-01T01:46:59;19.80;96.70
36990;DHT22;22898;52.102;5.776;2022-07-01T01:49:24;20.10;96.20
36990;DHT22;22898;52.102;5.776;2022-07-01T01:51:50;20.30;95.70
36990;DHT22;22898;52.102;5.776;2022-07-01T01:54:15;20.30;96.00
36990;DHT22;22898;52.102;5.776;2022-07-01T01:56:41;20.30;95.70
36990;DHT22;22898;52.102;5.776;2022-07-01T01:59:06;20.60;95.50
36990;DHT22;22898;52.102;5.776;2022-07-01T02:01:32;20.60;95.20
36990;DHT22;22898;52.102;5.776;2022-07-01T02:03:58;20.40;95.50
36990;DHT22;22898;52.102;5.776;2022-07-01T02:06:24;20.50;95.00
36990;DHT22;22898;52.102;5.776;2022-07-01T02:08:50;20.20;95.90
36990;DHT22;22898;52.102;5.776;2022-07-01T02:11:15;20.00;96.20
36990;DHT22;22898;52.102;5.776;2022-07-01T02:13:41;20.10;95.90
36990;DHT22;22898;52.102;5.776;2022-07-01T02:16:07;20.30;95.70
36990;DHT22;22898;52.102;5.776;2022-07-01T02:18:32;20.50;95.30
36990;DHT22;22898;52.102;5.776;2022-07-01T02:20:58;20.80;94.90
36990;DHT22;22898;52.102;5.776;2022-07-01T02:23:24;20.90;94.70
36990;DHT22;22898;52.102;5.776;2022-07-01T02:25:50;20.70;94.90
36990;DHT22;22898;52.102;5.776;2022-07-01T02:28:16;20.20;95.50
36990;DHT22;22898;52.102;5.776;2022-07-01T02:30:42;19.90;96.30
36990;DHT22;22898;52.102;5.776;2022-07-01T02:33:08;19.80;96.50
36990;DHT22;22898;52.102;5.776;2022-07-01T02:35:39;19.60;96.80
36990;DHT22;22898;52.102;5.776;2022-07-01T02:38:06;19.60;96.60
36990;DHT22;22898;52.102;5.776;2022-07-01T02:40:33;19.60;96.40
36990;DHT22;22898;52.102;5.776;2022-07-01T02:43:00;19.90;96.10
36990;DHT22;22898;52.102;5.776;2022-07-01T02:45:26;19.90;95.90
36990;DHT22;22898;52.102;5.776;2022-07-01T02:47:51;19.60;96.40
36990;DHT22;22898;52.102;5.776;2022-07-01T02:50:18;19.60;96.30
36990;DHT22;22898;52.102;5.776;2022-07-01T02:52:45;19.70;96.20
36990;DHT22;22898;52.102;5.776;2022-07-01T02:55:11;20.10;95.60
36990;DHT22;22898;52.102;5.776;2022-07-01T02:57:38;20.30;95.20
36990;DHT22;22898;52.102;5.776;2022-07-01T03:00:06;20.50;94.70
36990;DHT22;22898;52.102;5.776;2022-07-01T03:02:32;20.60;94.40
36990;DHT22;22898;52.102;5.776;2022-07-01T03:04:58;20.40;94.30
36990;DHT22;22898;52.102;5.776;2022-07-01T03:07:24;20.30;94.70
36990;DHT22;22898;52.102;5.776;2022-07-01T03:09:50;20.10;94.80
36990;DHT22;22898;52.102;5.776;2022-07-01T03:12:16;19.80;95.20
36990;DHT22;22898;52.102;5.776;2022-07-01T03:14:52;19.30;96.30
36990;DHT22;22898;52.102;5.776;2022-07-01T03:17:18;19.30;96.20
36990;DHT22;22898;52.102;5.776;2022-07-01T03:19:45;19.80;95.30
36990;DHT22;22898;52.102;5.776;2022-07-01T03:22:11;20.00;95.20
36990;DHT22;22898;52.102;5.776;2022-07-01T03:24:36;20.30;94.70
36990;DHT22;22898;52.102;5.776;2022-07-01T03:27:02;20.50;94.40
36990;DHT22;22898;52.102;5.776;2022-07-01T03:29:28;20.70;93.70
36990;DHT22;22898;52.102;5.776;2022-07-01T03:31:53;20.70;93.60
36990;DHT22;22898;52.102;5.776;2022-07-01T03:34:19;20.90;93.30
36990;DHT22;22898;52.102;5.776;2022-07-01T03:36:45;20.90;93.10
36990;DHT22;22898;52.102;5.776;2022-07-01T03:39:10;20.70;93.30
36990;DHT22;22898;52.102;5.776;2022-07-01T03:41:36;20.10;94.20
36990;DHT22;22898;52.102;5.776;2022-07-01T03:44:01;20.00;94.10
36990;DHT22;22898;52.102;5.776;2022-07-01T03:46:27;20.10;94.20
36990;DHT22;22898;52.102;5.776;2022-07-01T03:48:56;20.20;93.90
36990;DHT22;22898;52.102;5.776;2022-07-01T03:51:22;20.30;93.70
36990;DHT22;22898;52.102;5.776;2022-07-01T03:53:47;20.50;93.50
36990;DHT22;22898;52.102;5.776;2022-07-01T03:56:31;20.70;93.20
36990;DHT22;22898;52.102;5.776;2022-07-01T03:58:57;20.60;93.30
36990;DHT22;22898;52.102;5.776;2022-07-01T04:01:23;20.50;93.20
36990;DHT22;22898;52.102;5.776;2022-07-01T04:03:48;20.70;93.30
36990;DHT22;22898;52.102;5.776;2022-07-01T04:06:14;20.70;93.40
36990;DHT22;22898;52.102;5.776;2022-07-01T04:08:40;20.80;93.00
36990;DHT22;22898;52.102;5.776;2022-07-01T04:11:06;20.90;93.10
36990;DHT22;22898;52.102;5.776;2022-07-01T04:13:34;20.90;93.10
36990;DHT22;22898;52.102;5.776;2022-07-01T04:16:00;21.00;93.00
36990;DHT22;22898;52.102;5.776;2022-07-01T04:18:27;21.10;92.70
36990;DHT22;22898;52.102;5.776;2022-07-01T04:20:52;21.10;92.50
36990;DHT22;22898;52.102;5.776;2022-07-01T04:23:36;21.20;92.40
36990;DHT22;22898;52.102;5.776;2022-07-01T04:26:02;21.20;92.40
36990;DHT22;22898;52.102;5.776;2022-07-01T04:28:28;21.00;92.60
36990;DHT22;22898;52.102;5.776;2022-07-01T04:30:54;20.90;92.90
36990;DHT22;22898;52.102;5.776;2022-07-01T04:33:20;20.90;92.90
36990;DHT22;22898;52.102;5.776;2022-07-01T04:35:45;20.80;93.00
36990;DHT22;22898;52.102;5.776;2022-07-01T04:38:11;20.70;93.10
36990;DHT22;22898;52.102;5.776;2022-07-01T04:40:36;20.10;94.40
36990;DHT22;22898;52.102;5.776;2022-07-01T04:43:02;19.90;94.80
36990;DHT22;22898;52.102;5.776;2022-07-01T04:45:27;20.10;94.50
36990;DHT22;22898;52.102;5.776;2022-07-01T04:47:53;20.30;94.20
36990;DHT22;22898;52.102;5.776;2022-07-01T04:50:18;20.30;94.10
36990;DHT22;22898;52.102;5.776;2022-07-01T04:52:44;20.30;94.20
36990;DHT22;22898;52.102;5.776;2022-07-01T04:55:09;20.40;94.10
36990;DHT22;22898;52.102;5.776;2022-07-01T04:57:35;20.40;94.20
36990;DHT22;22898;52.102;5.776;2022-07-01T05:00:00;20.40;94.00
36990;DHT22;22898;52.102;5.776;2022-07-01T05:02:26;20.40;94.10
36990;DHT22;22898;52.102;5.776;2022-07-01T05:04:51;20.50;94.30
36990;DHT22;22898;52.102;5.776;2022-07-01T05:07:17;20.60;94.00
36990;DHT22;22898;52.102;5.776;2022-07-01T05:09:55;20.80;93.60
36990;DHT22;22898;52.102;5.776;2022-07-01T05:12:21;20.90;93.50
36990;DHT22;22898;52.102;5.776;2022-07-01T05:14:47;21.00;93.30
36990;DHT22;22898;52.102;5.776;2022-07-01T05:17:13;20.90;93.40
36990;DHT22;22898;52.102;5.776;2022-07-01T05:19:39;20.70;93.90
36990;DHT22;22898;52.102;5.776;2022-07-01T05:22:23;20.80;93.70
36990;DHT22;22898;52.102;5.776;2022-07-01T05:24:48;21.00;93.40
36990;DHT22;22898;52.102;5.776;2022-07-01T05:27:14;20.70;93.70
36990;DHT22;22898;52.102;5.776;2022-07-01T05:29:39;20.50;94.00
36990;DHT22;22898;52.102;5.776;2022-07-01T05:32:05;20.40;94.30
36990;DHT22;22898;52.102;5.776;2022-07-01T05:34:31;20.60;94.10
36990;DHT22;22898;52.102;5.776;2022-07-01T05:36:57;20.70;93.80
36990;DHT22;22898;52.102;5.776;2022-07-01T05:39:22;20.80;93.60
36990;DHT22;22898;52.102;5.776;2022-07-01T05:41:48;21.00;93.50
36990;DHT22;22898;52.102;5.776;2022-07-01T05:44:14;21.10;93.00
36990;DHT22;22898;52.102;5.776;2022-07-01T05:46:39;21.00;93.50
36990;DHT22;22898;52.102;5.776;2022-07-01T05:49:05;21.00;93.30
36990;DHT22;22898;52.102;5.776;2022-07-01T05:51:31;20.80;93.90
36990;DHT22;22898;52.102;5.776;2022-07-01T05:53:57;21.00;93.80
36990;DHT22;22898;52.102;5.776;2022-07-01T05:56:23;21.10;93.70
36990;DHT22;22898;52.102;5.776;2022-07-01T05:58:49;21.20;93.40
36990;DHT22;22898;52.102;5.776;2022-07-01T06:01:14;21.10;93.30
36990;DHT22;22898;52.102;5.776;2022-07-01T06:03:40;21.30;93.10
36990;DHT22;22898;52.102;5.776;2022-07-01T06:06:05;21.30;93.10
36990;DHT22;22898;52.102;5.776;2022-07-01T06:08:32;21.40;93.00
36990;DHT22;22898;52.102;5.776;2022-07-01T06:10:58;21.40;93.20
36990;DHT22;22898;52.102;5.776;2022-07-01T06:13:24;21.60;93.00
36990;DHT22;22898;52.102;5.776;2022-07-01T06:15:49;21.70;92.70
36990;DHT22;22898;52.102;5.776;2022-07-01T06:18:15;21.70;92.70
36990;DHT22;22898;52.102;5.776;2022-07-01T06:20:40;21.80;92.50
36990;DHT22;22898;52.102;5.776;2022-07-01T06:23:06;21.30;93.40
36990;DHT22;22898;52.102;5.776;2022-07-01T06:25:31;20.50;94.60
36990;DHT22;22898;52.102;5.776;2022-07-01T06:27:57;20.30;95.00
36990;DHT22;22898;52.102;5.776;2022-07-01T06:30:23;20.60;94.30
36990;DHT22;22898;52.102;5.776;2022-07-01T06:32:48;20.80;94.50
36990;DHT22;22898;52.102;5.776;2022-07-01T06:35:14;21.00;93.70
36990;DHT22;22898;52.102;5.776;2022-07-01T06:37:39;21.00;93.90
36990;DHT22;22898;52.102;5.776;2022-07-01T06:40:06;20.80;94.30
36990;DHT22;22898;52.102;5.776;2022-07-01T06:42:32;21.00;94.20
36990;DHT22;22898;52.102;5.776;2022-07-01T06:44:58;20.60;94.30
36990;DHT22;22898;52.102;5.776;2022-07-01T06:47:23;19.80;95.70
36990;DHT22;22898;52.102;5.776;2022-07-01T06:49:49;19.50;96.30
36990;DHT22;22898;52.102;5.776;2022-07-01T06:52:14;19.40;96.20
36990;DHT22;22898;52.102;5.776;2022-07-01T06:54:40;19.40;96.50
36990;DHT22;22898;52.102;5.776;2022-07-01T06:57:06;19.60;96.30
36990;DHT22;22898;52.102;5.776;2022-07-01T06:59:32;20.10;95.60
36990;DHT22;22898;52.102;5.776;2022-07-01T07:01:58;20.20;95.30
36990;DHT22;22898;52.102;5.776;2022-07-01T07:04:24;20.30;95.10
36990;DHT22;22898;52.102;5.776;2022-07-01T07:06:49;20.20;95.20
36990;DHT22;22898;52.102;5.776;2022-07-01T07:09:15;20.60;94.70
36990;DHT22;22898;52.102;5.776;2022-07-01T07:11:40;20.80;93.40
36990;DHT22;22898;52.102;5.776;2022-07-01T07:14:06;20.50;94.00
36990;DHT22;22898;52.102;5.776;2022-07-01T07:16:31;20.10;95.30
36990;DHT22;22898;52.102;5.776;2022-07-01T07:18:57;20.30;95.10
36990;DHT22;22898;52.102;5.776;2022-07-01T07:21:22;20.40;95.00
36990;DHT22;22898;52.102;5.776;2022-07-01T07:23:48;20.60;94.60
36990;DHT22;22898;52.102;5.776;2022-07-01T07:26:14;20.90;94.30
36990;DHT22;22898;52.102;5.776;2022-07-01T07:28:39;21.00;94.30
36990;DHT22;22898;52.102;5.776;2022-07-01T07:31:05;21.00;94.00
36990;DHT22;22898;52.102;5.776;2022-07-01T07:33:31;20.10;96.00
36990;DHT22;22898;52.102;5.776;2022-07-01T07:35:56;20.50;95.50
36990;DHT22;22898;52.102;5.776;2022-07-01T07:38:22;20.50;94.80
36990;DHT22;22898;52.102;5.776;2022-07-01T07:40:48;20.80;94.30
36990;DHT22;22898;52.102;5.776;2022-07-01T07:43:14;21.00;93.90
36990;DHT22;22898;52.102;5.776;2022-07-01T07:45:40;21.40;94.00
36990;DHT22;22898;52.102;5.776;2022-07-01T07:48:05;21.80;93.80
36990;DHT22;22898;52.102;5.776;2022-07-01T07:50:32;22.10;92.60
36990;DHT22;22898;52.102;5.776;2022-07-01T07:52:58;22.40;92.00
36990;DHT22;22898;52.102;5.776;2022-07-01T07:55:23;22.90;91.90
36990;DHT22;22898;52.102;5.776;2022-07-01T07:57:49;22.80;91.40
36990;DHT22;22898;52.102;5.776;2022-07-01T08:00:15;23.00;90.50
36990;DHT22;22898;52.102;5.776;2022-07-01T08:02:41;23.00;91.20
36990;DHT22;22898;52.102;5.776;2022-07-01T08:05:08;22.50;91.30
36990;DHT22;22898;52.102;5.776;2022-07-01T08:07:39;22.10;91.60
36990;DHT22;22898;52.102;5.776;2022-07-01T08:10:07;22.30;91.70
36990;DHT22;22898;52.102;5.776;2022-07-01T08:12:33;22.40;91.50
36990;DHT22;22898;52.102;5.776;2022-07-01T08:14:59;22.30;91.60
36990;DHT22;22898;52.102;5.776;2022-07-01T08:17:24;22.60;91.00
36990;DHT22;22898;52.102;5.776;2022-07-01T08:19:50;22.50;91.90
36990;DHT22;22898;52.102;5.776;2022-07-01T08:22:16;22.60;90.90
36990;DHT22;22898;52.102;5.776;2022-07-01T08:24:41;22.30;90.70
36990;DHT22;22898;52.102;5.776;2022-07-01T08:27:07;22.10;90.80
36990;DHT22;22898;52.102;5.776;2022-07-01T08:29:33;21.10;92.10
36990;DHT22;22898;52.102;5.776;2022-07-01T08:31:58;20.70;92.90
36990;DHT22;22898;52.102;5.776;2022-07-01T08:34:24;21.10;91.80
36990;DHT22;22898;52.102;5.776;2022-07-01T08:36:49;21.10;91.90
36990;DHT22;22898;52.102;5.776;2022-07-01T08:39:15;21.60;91.00
36990;DHT22;22898;52.102;5.776;2022-07-01T08:41:44;22.00;90.40
36990;DHT22;22898;52.102;5.776;2022-07-01T08:44:09;22.40;88.80
36990;DHT22;22898;52.102;5.776;2022-07-01T08:46:35;22.00;90.20
36990;DHT22;22898;52.102;5.776;2022-07-01T08:49:02;22.30;90.30
36990;DHT22;22898;52.102;5.776;2022-07-01T08:51:27;22.70;87.90
36990;DHT22;22898;52.102;5.776;2022-07-01T08:53:53;23.30;87.30
36990;DHT22;22898;52.102;5.776;2022-07-01T08:56:19;23.50;83.60
36990;DHT22;22898;52.102;5.776;2022-07-01T08:59:03;23.20;85.20
36990;DHT22;22898;52.102;5.776;2022-07-01T09:01:32;23.40;84.20
36990;DHT22;22898;52.102;5.776;2022-07-01T09:04:16;23.40;85.20
36990;DHT22;22898;52.102;5.776;2022-07-01T09:06:42;23.10;82.70
36990;DHT22;22898;52.102;5.776;2022-07-01T09:09:16;22.90;84.80
36990;DHT22;22898;52.102;5.776;2022-07-01T09:11:50;22.90;83.20
36990;DHT22;22898;52.102;5.776;2022-07-01T09:14:21;22.70;86.00
36990;DHT22;22898;52.102;5.776;2022-07-01T09:16:58;22.90;84.70
36990;DHT22;22898;52.102;5.776;2022-07-01T09:19:25;23.20;82.50
36990;DHT22;22898;52.102;5.776;2022-07-01T09:22:01;23.40;81.60
36990;DHT22;22898;52.102;5.776;2022-07-01T09:26:59;23.70;83.60
36990;DHT22;22898;52.102;5.776;2022-07-01T09:29:26;23.90;79.30
36990;DHT22;22898;52.102;5.776;2022-07-01T09:31:52;23.90;78.30
36990;DHT22;22898;52.102;5.776;2022-07-01T09:34:18;23.70;79.20
36990;DHT22;22898;52.102;5.776;2022-07-01T09:36:54;22.70;82.40
36990;DHT22;22898;52.102;5.776;2022-07-01T09:39:21;22.90;83.80
36990;DHT22;22898;52.102;5.776;2022-07-01T09:41:47;23.00;82.30
36990;DHT22;22898;52.102;5.776;2022-07-01T09:44:12;23.20;79.50
36990;DHT22;22898;52.102;5.776;2022-07-01T09:46:51;23.00;77.60
36990;DHT22;22898;52.102;5.776;2022-07-01T09:49:17;22.40;80.90
36990;DHT22;22898;52.102;5.776;2022-07-01T09:51:43;22.70;81.00
36990;DHT22;22898;52.102;5.776;2022-07-01T09:54:12;22.50;83.50
36990;DHT22;22898;52.102;5.776;2022-07-01T09:56:38;23.00;84.80
36990;DHT22;22898;52.102;5.776;2022-07-01T09:59:03;23.40;80.00
36990;DHT22;22898;52.102;5.776;2022-07-01T10:01:31;23.40;80.20
36990;DHT22;22898;52.102;5.776;2022-07-01T10:03:58;22.70;79.90
36990;DHT22;22898;52.102;5.776;2022-07-01T10:07:11;23.10;81.20
36990;DHT22;22898;52.102;5.776;2022-07-01T10:09:55;23.60;78.50
36990;DHT22;22898;52.102;5.776;2022-07-01T10:15:01;23.20;76.10
36990;DHT22;22898;52.102;5.776;2022-07-01T10:17:34;22.80;77.80
36990;DHT22;22898;52.102;5.776;2022-07-01T10:20:19;22.50;76.60
36990;DHT22;22898;52.102;5.776;2022-07-01T10:22:45;22.90;76.40
36990;DHT22;22898;52.102;5.776;2022-07-01T10:30:49;23.40;73.30
36990;DHT22;22898;52.102;5.776;2022-07-01T10:36:16;23.80;75.30
36990;DHT22;22898;52.102;5.776;2022-07-01T10:41:28;24.20;71.20
36990;DHT22;22898;52.102;5.776;2022-07-01T10:43:54;24.50;69.40
36990;DHT22;22898;52.102;5.776;2022-07-01T10:49:20;24.60;70.60
36990;DHT22;22898;52.102;5.776;2022-07-01T10:51:49;24.50;72.00
36990;DHT22;22898;52.102;5.776;2022-07-01T11:02:21;23.80;71.10
36990;DHT22;22898;52.102;5.776;2022-07-01T11:04:49;23.70;71.90
36990;DHT22;22898;52.102;5.776;2022-07-01T11:07:15;23.70;71.50
36990;DHT22;22898;52.102;5.776;2022-07-01T11:09:40;22.80;74.00
36990;DHT22;22898;52.102;5.776;2022-07-01T11:12:07;22.00;76.40
36990;DHT22;22898;52.102;5.776;2022-07-01T11:14:37;22.10;76.90
36990;DHT22;22898;52.102;5.776;2022-07-01T11:17:05;22.90;76.30
36990;DHT22;22898;52.102;5.776;2022-07-01T11:19:30;23.20;75.60
36990;DHT22;22898;52.102;5.776;2022-07-01T11:21:56;22.90;74.50
36990;DHT22;22898;52.102;5.776;2022-07-01T11:24:23;23.40;74.10
36990;DHT22;22898;52.102;5.776;2022-07-01T11:26:49;23.30;72.90
36990;DHT22;22898;52.102;5.776;2022-07-01T11:29:24;22.70;73.50
36990;DHT22;22898;52.102;5.776;2022-07-01T11:31:51;23.00;72.70
36990;DHT22;22898;52.102;5.776;2022-07-01T11:34:18;23.50;73.50
36990;DHT22;22898;52.102;5.776;2022-07-01T11:36:45;23.90;70.70
36990;DHT22;22898;52.102;5.776;2022-07-01T11:39:30;23.70;71.50
36990;DHT22;22898;52.102;5.776;2022-07-01T11:42:04;22.90;71.90
36990;DHT22;22898;52.102;5.776;2022-07-01T11:44:37;22.40;75.00
36990;DHT22;22898;52.102;5.776;2022-07-01T11:47:08;22.80;73.90
36990;DHT22;22898;52.102;5.776;2022-07-01T11:49:42;23.10;72.70
36990;DHT22;22898;52.102;5.776;2022-07-01T11:52:08;23.90;71.40
36990;DHT22;22898;52.102;5.776;2022-07-01T11:54:40;24.60;69.00
36990;DHT22;22898;52.102;5.776;2022-07-01T11:57:20;24.70;70.00
36990;DHT22;22898;52.102;5.776;2022-07-01T11:59:48;25.40;67.30
36990;DHT22;22898;52.102;5.776;2022-07-01T12:02:15;24.80;68.90
36990;DHT22;22898;52.102;5.776;2022-07-01T12:04:43;24.10;69.80
36990;DHT22;22898;52.102;5.776;2022-07-01T12:07:09;24.00;71.10
36990;DHT22;22898;52.102;5.776;2022-07-01T12:09:36;24.60;69.80
36990;DHT22;22898;52.102;5.776;2022-07-01T12:12:03;24.90;69.60
36990;DHT22;22898;52.102;5.776;2022-07-01T12:14:35;25.30;66.40
36990;DHT22;22898;52.102;5.776;2022-07-01T12:17:08;25.30;66.80
36990;DHT22;22898;52.102;5.776;2022-07-01T12:19:38;24.50;64.60
36990;DHT22;22898;52.102;5.776;2022-07-01T12:22:09;23.90;66.10
36990;DHT22;22898;52.102;5.776;2022-07-01T12:24:36;23.80;69.10
36990;DHT22;22898;52.102;5.776;2022-07-01T12:27:04;24.70;66.60
36990;DHT22;22898;52.102;5.776;2022-07-01T12:34:54;24.00;66.70
36990;DHT22;22898;52.102;5.776;2022-07-01T12:37:34;24.00;68.70
36990;DHT22;22898;52.102;5.776;2022-07-01T12:40:05;24.10;68.60
36990;DHT22;22898;52.102;5.776;2022-07-01T12:42:36;25.00;68.80
36990;DHT22;22898;52.102;5.776;2022-07-01T12:45:07;25.30;65.10
36990;DHT22;22898;52.102;5.776;2022-07-01T12:47:38;25.00;66.80
36990;DHT22;22898;52.102;5.776;2022-07-01T12:50:20;25.50;66.00
36990;DHT22;22898;52.102;5.776;2022-07-01T12:55:42;25.60;66.00
36990;DHT22;22898;52.102;5.776;2022-07-01T12:58:14;24.90;67.80
36990;DHT22;22898;52.102;5.776;2022-07-01T13:00:41;24.70;69.00
36990;DHT22;22898;52.102;5.776;2022-07-01T13:03:07;25.30;66.80
36990;DHT22;22898;52.102;5.776;2022-07-01T13:05:35;24.60;67.60
36990;DHT22;22898;52.102;5.776;2022-07-01T13:08:01;24.40;67.90
36990;DHT22;22898;52.102;5.776;2022-07-01T13:10:28;24.30;69.50
36990;DHT22;22898;52.102;5.776;2022-07-01T13:12:54;24.70;70.40
36990;DHT22;22898;52.102;5.776;2022-07-01T13:15:19;25.30;67.50
36990;DHT22;22898;52.102;5.776;2022-07-01T13:17:46;25.70;66.00
36990;DHT22;22898;52.102;5.776;2022-07-01T13:20:13;25.70;66.60
36990;DHT22;22898;52.102;5.776;2022-07-01T13:22:39;24.60;68.70
36990;DHT22;22898;52.102;5.776;2022-07-01T13:25:06;24.40;69.50
36990;DHT22;22898;52.102;5.776;2022-07-01T13:27:32;24.80;69.20
36990;DHT22;22898;52.102;5.776;2022-07-01T13:29:58;24.90;67.70
36990;DHT22;22898;52.102;5.776;2022-07-01T13:32:24;24.60;68.50
36990;DHT22;22898;52.102;5.776;2022-07-01T13:34:50;24.20;69.50
36990;DHT22;22898;52.102;5.776;2022-07-01T13:37:15;24.50;68.00
36990;DHT22;22898;52.102;5.776;2022-07-01T13:39:41;24.50;67.90
36990;DHT22;22898;52.102;5.776;2022-07-01T13:42:07;24.10;69.90
36990;DHT22;22898;52.102;5.776;2022-07-01T13:44:33;24.10;70.50
36990;DHT22;22898;52.102;5.776;2022-07-01T13:46:59;24.60;70.00
36990;DHT22;22898;52.102;5.776;2022-07-01T13:49:25;25.50;68.40
36990;DHT22;22898;52.102;5.776;2022-07-01T13:51:50;25.90;66.60
36990;DHT22;22898;52.102;5.776;2022-07-01T13:54:16;26.50;65.20
36990;DHT22;22898;52.102;5.776;2022-07-01T13:56:41;26.20;64.80
36990;DHT22;22898;52.102;5.776;2022-07-01T13:59:07;25.50;65.80
36990;DHT22;22898;52.102;5.776;2022-07-01T14:01:34;25.10;66.90
36990;DHT22;22898;52.102;5.776;2022-07-01T14:04:00;24.80;67.40
36990;DHT22;22898;52.102;5.776;2022-07-01T14:06:26;24.30;69.70
36990;DHT22;22898;52.102;5.776;2022-07-01T14:08:52;24.20;69.60
36990;DHT22;22898;52.102;5.776;2022-07-01T14:11:17;24.20;69.50
36990;DHT22;22898;52.102;5.776;2022-07-01T14:13:43;24.80;69.20
36990;DHT22;22898;52.102;5.776;2022-07-01T14:16:08;25.10;68.90
36990;DHT22;22898;52.102;5.776;2022-07-01T14:18:34;25.20;68.80
36990;DHT22;22898;52.102;5.776;2022-07-01T14:21:01;24.80;69.30
36990;DHT22;22898;52.102;5.776;2022-07-01T14:23:27;24.90;70.40
36990;DHT22;22898;52.102;5.776;2022-07-01T14:25:52;25.40;68.50
36990;DHT22;22898;52.102;5.776;2022-07-01T14:28:18;25.90;67.60
36990;DHT22;22898;52.102;5.776;2022-07-01T14:30:44;25.50;68.30
36990;DHT22;22898;52.102;5.776;2022-07-01T14:33:10;25.90;66.30
36990;DHT22;22898;52.102;5.776;2022-07-01T14:35:35;25.50;67.80
36990;DHT22;22898;52.102;5.776;2022-07-01T14:38:01;25.10;68.80
36990;DHT22;22898;52.102;5.776;2022-07-01T14:40:27;25.30;68.30
36990;DHT22;22898;52.102;5.776;2022-07-01T14:42:52;25.60;68.20
36990;DHT22;22898;52.102;5.776;2022-07-01T14:45:18;26.20;66.60
36990;DHT22;22898;52.102;5.776;2022-07-01T14:47:44;26.20;67.20
36990;DHT22;22898;52.102;5.776;2022-07-01T14:50:11;26.70;65.70
36990;DHT22;22898;52.102;5.776;2022-07-01T14:52:37;26.90;66.00
36990;DHT22;22898;52.102;5.776;2022-07-01T14:55:04;26.70;65.50
36990;DHT22;22898;52.102;5.776;2022-07-01T14:57:30;26.00;67.10
36990;DHT22;22898;52.102;5.776;2022-07-01T14:59:56;25.00;69.80
36990;DHT22;22898;52.102;5.776;2022-07-01T15:02:23;24.80;70.40
36990;DHT22;22898;52.102;5.776;2022-07-01T15:04:49;24.90;70.20
36990;DHT22;22898;52.102;5.776;2022-07-01T15:07:15;25.00;70.70
36990;DHT22;22898;52.102;5.776;2022-07-01T15:09:40;24.80;71.20
36990;DHT22;22898;52.102;5.776;2022-07-01T15:12:06;24.80;72.50
36990;DHT22;22898;52.102;5.776;2022-07-01T15:14:32;25.20;71.20
36990;DHT22;22898;52.102;5.776;2022-07-01T15:16:58;25.00;71.40
36990;DHT22;22898;52.102;5.776;2022-07-01T15:19:25;25.00;71.70
36990;DHT22;22898;52.102;5.776;2022-07-01T15:21:54;24.60;73.30
36990;DHT22;22898;52.102;5.776;2022-07-01T15:24:21;24.70;72.40
36990;DHT22;22898;52.102;5.776;2022-07-01T15:26:46;24.30;73.30
36990;DHT22;22898;52.102;5.776;2022-07-01T15:29:12;23.80;75.00
36990;DHT22;22898;52.102;5.776;2022-07-01T15:31:37;23.60;75.40
36990;DHT22;22898;52.102;5.776;2022-07-01T15:34:03;23.70;75.30
36990;DHT22;22898;52.102;5.776;2022-07-01T15:36:29;23.70;75.40
36990;DHT22;22898;52.102;5.776;2022-07-01T15:38:54;23.60;75.80
36990;DHT22;22898;52.102;5.776;2022-07-01T15:41:21;23.30;76.70
36990;DHT22;22898;52.102;5.776;2022-07-01T15:43:50;23.30;76.80
36990;DHT22;22898;52.102;5.776;2022-07-01T15:46:15;23.80;76.00
36990;DHT22;22898;52.102;5.776;2022-07-01T15:48:41;24.00;74.90
36990;DHT22;22898;52.102;5.776;2022-07-01T15:51:06;23.80;75.20
36990;DHT22;22898;52.102;5.776;2022-07-01T15:53:32;23.50;76.00
36990;DHT22;22898;52.102;5.776;2022-07-01T15:55:59;23.60;76.30
36990;DHT22;22898;52.102;5.776;2022-07-01T15:58:24;24.10;74.80
36990;DHT22;22898;52.102;5.776;2022-07-01T16:00:50;24.70;73.00
36990;DHT22;22898;52.102;5.776;2022-07-01T16:03:16;25.00;71.50
36990;DHT22;22898;52.102;5.776;2022-07-01T16:05:46;24.90;71.90